sensor_id;sensor_type;location;lat;lon;timestamp;temperature;humidity
3466;DHT22;1747;48.884;9.160;2023-11-18T03:43:40;6.10;99.90
3466;DHT22;1747;48.884;9.160;2023-11-18T03:46:07;6.00;99.90
3466;DHT22;1747;48.884;9.160;2023-11-18T03:48:34;6.00;99.90
3466;DHT22;1747;48.884;9.160;2023-11-18T03:51:01;5.90;99.90
3466;DHT22;1747;48.884;9.160;2023-11-18T03:53:29;6.00;99.90
3466;DHT22;1747;48.884;9.160;2023-11-18T03:55:56;6.00;99.90
3466;DHT22;1747;48.884;9.160;2023-11-18T03:58:23;6.00;99.90
3466;DHT22;1747;48.884;9.160;2023-11-18T04:00:51;6.10;99.90
3466;DHT22;1747;48.884;9.160;2023-11-18T04:03:19;6.10;99.90
3466;DHT22;1747;48.884;9.160;2023-11-18T04:05:46;6.00;99.90
3466;DHT22;1747;48.884;9.160;2023-11-18T04:08:13;6.00;99.90
3466;DHT22;1747;48.884;9.160;2023-11-18T04:10:40;6.00;99.90
3466;DHT22;1747;48.884;9.160;2023-11-18T04:13:07;6.00;99.90
3466;DHT22;1747;48.884;9.160;2023-11-18T04:15:34;6.00;99.90
3466;DHT22;1747;48.884;9.160;2023-11-18T04:18:03;6.00;99.90
3466;DHT22;1747;48.884;9.160;2023-11-18T04:20:32;6.10;99.90
3466;DHT22;1747;48.884;9.160;2023-11-18T04:22:59;6.20;99.90
3466;DHT22;1747;48.884;9.160;2023-11-18T04:25:26;6.20;99.90
3466;DHT22;1747;48.884;9.160;2023-11-18T04:27:53;6.20;99.90
3466;DHT22;1747;48.884;9.160;2023-11-18T04:30:20;6.20;99.90
3466;DHT22;1747;48.884;9.160;2023-11-18T04:32:47;6.20;99.90
3466;DHT22;1747;48.884;9.160;2023-11-18T04:35:15;6.20;99.90
3466;DHT22;1747;48.884;9.160;2023-11-18T04:37:42;6.20;99.90
3466;DHT22;1747;48.884;9.160;2023-11-18T04:40:11;6.30;99.90
3466;DHT22;1747;48.884;9.160;2023-11-18T04:42:39;6.20;99.90
3466;DHT22;1747;48.884;9.160;2023-11-18T04:45:06;6.20;99.90
3466;DHT22;1747;48.884;9.160;2023-11-18T04:47:35;6.20;99.90
3466;DHT22;1747;48.884;9.160;2023-11-18T04:50:03;6.20;99.90
3466;DHT22;1747;48.884;9.160;2023-11-18T04:52:32;6.10;99.90
3466;DHT22;1747;48.884;9.160;2023-11-18T04:55:00;6.10;99.90
3466;DHT22;1747;48.884;9.160;2023-11-18T08:06:25;6.10;99.90
3466;DHT22;1747;48.884;9.160;2023-11-18T08:08:52;6.20;99.90
3466;DHT22;1747;48.884;9.160;2023-11-18T08:11:19;6.30;99.90
3466;DHT22;1747;48.884;9.160;2023-11-18T08:13:46;6.40;99.90
3466;DHT22;1747;48.884;9.160;2023-11-18T08:16:13;6.40;99.90
3466;DHT22;1747;48.884;9.160;2023-11-18T08:18:40;6.50;99.90
3466;DHT22;1747;48.884;9.160;2023-11-18T08:21:07;6.70;99.90
3466;DHT22;1747;48.884;9.160;2023-11-18T08:23:35;6.70;99.90
3466;DHT22;1747;48.884;9.160;2023-11-18T08:26:03;6.80;99.90
3466;DHT22;1747;48.884;9.160;2023-11-18T08:28:31;6.70;99.90
3466;DHT22;1747;48.884;9.160;2023-11-18T08:30:57;6.70;99.90
3466;DHT22;1747;48.884;9.160;2023-11-18T08:33:26;6.70;99.90
3466;DHT22;1747;48.884;9.160;2023-11-18T08:35:54;6.70;99.90
3466;DHT22;1747;48.884;9.160;2023-11-18T08:38:22;6.60;99.90
3466;DHT22;1747;48.884;9.160;2023-11-18T08:40:51;6.60;99.90
3466;DHT22;1747;48.884;9.160;2023-11-18T08:43:18;6.70;99.90
3466;DHT22;1747;48.884;9.160;2023-11-18T08:45:47;6.70;99.90
3466;DHT22;1747;48.884;9.160;2023-11-18T08:48:15;6.80;99.90
3466;DHT22;1747;48.884;9.160;2023-11-18T08:50:44;6.90;99.90
3466;DHT22;1747;48.884;9.160;2023-11-18T08:53:10;7.00;99.90
3466;DHT22;1747;48.884;9.160;2023-11-18T08:55:38;7.10;99.90
3466;DHT22;1747;48.884;9.160;2023-11-18T08:58:17;7.30;99.90
3466;DHT22;1747;48.884;9.160;2023-11-18T09:00:46;7.40;99.90
3466;DHT22;1747;48.884;9.160;2023-11-18T09:03:19;7.50;99.90
3466;DHT22;1747;48.884;9.160;2023-11-18T09:05:52;7.50;99.90
3466;DHT22;1747;48.884;9.160;2023-11-18T09:08:30;7.60;99.90
3466;DHT22;1747;48.884;9.160;2023-11-18T09:11:01;7.60;99.90
3466;DHT22;1747;48.884;9.160;2023-11-18T09:13:32;7.70;99.90
3466;DHT22;1747;48.884;9.160;2023-11-18T09:16:01;7.70;99.90
3466;DHT22;1747;48.884;9.160;2023-11-18T09:18:29;7.70;99.90
3466;DHT22;1747;48.884;9.160;2023-11-18T09:20:58;7.80;99.90
3466;DHT22;1747;48.884;9.160;2023-11-18T09:23:27;7.90;99.90
3466;DHT22;1747;48.884;9.160;2023-11-18T09:25:55;8.10;99.90
3466;DHT22;1747;48.884;9.160;2023-11-18T09:28:23;8.20;99.90
3466;DHT22;1747;48.884;9.160;2023-11-18T09:30:52;8.20;99.90
3466;DHT22;1747;48.884;9.160;2023-11-18T09:33:24;8.40;99.90
3466;DHT22;1747;48.884;9.160;2023-11-18T09:35:58;8.50;99.90
3466;DHT22;1747;48.884;9.160;2023-11-18T09:38:26;8.50;99.90
3466;DHT22;1747;48.884;9.160;2023-11-18T09:40:54;8.70;99.90
3466;DHT22;1747;48.884;9.160;2023-11-18T09:43:21;8.60;99.90
3466;DHT22;1747;48.884;9.160;2023-11-18T09:45:52;8.30;99.90
3466;DHT22;1747;48.884;9.160;2023-11-18T09:48:21;8.30;99.90
3466;DHT22;1747;48.884;9.160;2023-11-18T09:50:52;8.40;99.90
3466;DHT22;1747;48.884;9.160;2023-11-18T09:53:19;8.30;99.90
3466;DHT22;1747;48.884;9.160;2023-11-18T09:55:55;8.40;99.90
3466;DHT22;1747;48.884;9.160;2023-11-18T09:58:35;8.50;99.90
3466;DHT22;1747;48.884;9.160;2023-11-18T10:01:08;8.60;99.90
3466;DHT22;1747;48.884;9.160;2023-11-18T10:03:40;8.60;99.90
3466;DHT22;1747;48.884;9.160;2023-11-18T10:06:08;8.70;99.90
3466;DHT22;1747;48.884;9.160;2023-11-18T10:08:35;8.90;99.90
3466;DHT22;1747;48.884;9.160;2023-11-18T10:11:04;9.10;99.90
3466;DHT22;1747;48.884;9.160;2023-11-18T10:13:34;9.20;99.90
3466;DHT22;1747;48.884;9.160;2023-11-18T10:16:08;9.40;99.90
3466;DHT22;1747;48.884;9.160;2023-11-18T10:18:35;9.30;99.90
3466;DHT22;1747;48.884;9.160;2023-11-18T10:21:02;9.20;99.90
3466;DHT22;1747;48.884;9.160;2023-11-18T10:23:33;9.30;99.90
3466;DHT22;1747;48.884;9.160;2023-11-18T10:26:03;9.30;99.90
3466;DHT22;1747;48.884;9.160;2023-11-18T10:28:32;9.30;99.90
3466;DHT22;1747;48.884;9.160;2023-11-18T10:31:00;9.40;99.90
3466;DHT22;1747;48.884;9.160;2023-11-18T10:33:30;9.50;99.90
3466;DHT22;1747;48.884;9.160;2023-11-18T10:35:58;9.50;99.90
3466;DHT22;1747;48.884;9.160;2023-11-18T10:38:29;9.60;99.90
3466;DHT22;1747;48.884;9.160;2023-11-18T10:40:57;9.70;99.90
3466;DHT22;1747;48.884;9.160;2023-11-18T10:43:26;9.60;99.90
3466;DHT22;1747;48.884;9.160;2023-11-18T10:46:04;9.70;99.90
3466;DHT22;1747;48.884;9.160;2023-11-18T10:48:39;9.80;99.90
3466;DHT22;1747;48.884;9.160;2023-11-18T10:51:09;9.80;99.90
3466;DHT22;1747;48.884;9.160;2023-11-18T10:53:39;9.80;99.90
3466;DHT22;1747;48.884;9.160;2023-11-18T10:56:16;9.80;99.90
3466;DHT22;1747;48.884;9.160;2023-11-18T10:58:45;9.80;99.90
3466;DHT22;1747;48.884;9.160;2023-11-18T11:01:12;9.80;99.90
3466;DHT22;1747;48.884;9.160;2023-11-18T11:03:52;9.80;99.90
3466;DHT22;1747;48.884;9.160;2023-11-18T11:06:23;9.90;99.90
3466;DHT22;1747;48.884;9.160;2023-11-18T11:08:50;9.80;99.90
3466;DHT22;1747;48.884;9.160;2023-11-18T11:11:20;9.70;99.90
3466;DHT22;1747;48.884;9.160;2023-11-18T11:13:49;9.70;99.90
3466;DHT22;1747;48.884;9.160;2023-11-18T11:16:18;9.70;99.90
3466;DHT22;1747;48.884;9.160;2023-11-18T11:18:51;9.80;99.90
3466;DHT22;1747;48.884;9.160;2023-11-18T11:21:25;9.80;99.90
3466;DHT22;1747;48.884;9.160;2023-11-18T11:23:55;9.90;99.90
3466;DHT22;1747;48.884;9.160;2023-11-18T11:26:34;10.00;99.90
3466;DHT22;1747;48.884;9.160;2023-11-18T11:29:18;10.00;99.90
3466;DHT22;1747;48.884;9.160;2023-11-18T11:32:00;10.00;99.90
3466;DHT22;1747;48.884;9.160;2023-11-18T11:34:30;10.10;99.90
3466;DHT22;1747;48.884;9.160;2023-11-18T11:37:01;10.00;99.90
3466;DHT22;1747;48.884;9.160;2023-11-18T11:39:29;10.00;99.90
3466;DHT22;1747;48.884;9.160;2023-11-18T11:42:02;10.00;99.90
3466;DHT22;1747;48.884;9.160;2023-11-18T11:44:35;10.00;99.90
3466;DHT22;1747;48.884;9.160;2023-11-18T11:47:08;10.10;99.90
3466;DHT22;1747;48.884;9.160;2023-11-18T11:49:44;10.10;99.90
3466;DHT22;1747;48.884;9.160;2023-11-18T11:52:22;10.10;99.90
3466;DHT22;1747;48.884;9.160;2023-11-18T11:54:59;10.20;99.90
3466;DHT22;1747;48.884;9.160;2023-11-18T11:57:28;10.20;99.90
3466;DHT22;1747;48.884;9.160;2023-11-18T11:59:56;10.10;99.90
3466;DHT22;1747;48.884;9.160;2023-11-18T12:02:22;10.20;99.90
3466;DHT22;1747;48.884;9.160;2023-11-18T12:04:51;10.20;99.90
3466;DHT22;1747;48.884;9.160;2023-11-18T12:07:21;10.20;99.90
3466;DHT22;1747;48.884;9.160;2023-11-18T12:09:48;10.10;99.90
3466;DHT22;1747;48.884;9.160;2023-11-18T12:12:20;10.10;99.90
3466;DHT22;1747;48.884;9.160;2023-11-18T12:14:50;10.10;99.90
3466;DHT22;1747;48.884;9.160;2023-11-18T12:17:22;10.20;99.90
3466;DHT22;1747;48.884;9.160;2023-11-18T12:19:50;10.20;99.90
3466;DHT22;1747;48.884;9.160;2023-11-18T12:22:25;10.10;99.90
3466;DHT22;1747;48.884;9.160;2023-11-18T12:28:13;10.10;99.90
3466;DHT22;1747;48.884;9.160;2023-11-18T12:30:42;10.10;99.90
3466;DHT22;1747;48.884;9.160;2023-11-18T12:33:21;10.10;99.90
3466;DHT22;1747;48.884;9.160;2023-11-18T12:36:33;10.10;99.90
3466;DHT22;1747;48.884;9.160;2023-11-18T12:39:37;10.00;99.90
3466;DHT22;1747;48.884;9.160;2023-11-18T12:42:29;9.80;99.90
3466;DHT22;1747;48.884;9.160;2023-11-18T12:45:14;9.60;99.90
3466;DHT22;1747;48.884;9.160;2023-11-18T12:47:49;9.40;99.90
3466;DHT22;1747;48.884;9.160;2023-11-18T12:50:17;9.20;99.90
3466;DHT22;1747;48.884;9.160;2023-11-18T12:52:51;9.30;99.90
3466;DHT22;1747;48.884;9.160;2023-11-18T12:55:20;9.20;99.90
3466;DHT22;1747;48.884;9.160;2023-11-18T12:57:47;9.30;99.90
3466;DHT22;1747;48.884;9.160;2023-11-18T13:00:15;9.30;99.90
3466;DHT22;1747;48.884;9.160;2023-11-18T13:02:52;9.20;99.90
3466;DHT22;1747;48.884;9.160;2023-11-18T13:05:19;9.10;99.90
3466;DHT22;1747;48.884;9.160;2023-11-18T13:07:46;9.00;99.90
3466;DHT22;1747;48.884;9.160;2023-11-18T13:10:14;9.10;99.90
3466;DHT22;1747;48.884;9.160;2023-11-18T13:12:42;9.10;99.90
3466;DHT22;1747;48.884;9.160;2023-11-18T13:15:11;9.10;99.90
3466;DHT22;1747;48.884;9.160;2023-11-18T13:17:38;9.10;99.90
3466;DHT22;1747;48.884;9.160;2023-11-18T13:20:12;9.10;99.90
3466;DHT22;1747;48.884;9.160;2023-11-18T13:22:39;9.00;99.90
3466;DHT22;1747;48.884;9.160;2023-11-18T13:25:08;9.00;99.90
3466;DHT22;1747;48.884;9.160;2023-11-18T13:27:35;8.90;99.90
3466;DHT22;1747;48.884;9.160;2023-11-18T13:30:07;8.90;99.90
3466;DHT22;1747;48.884;9.160;2023-11-18T13:32:40;9.00;99.90
3466;DHT22;1747;48.884;9.160;2023-11-18T13:35:08;9.00;99.90
3466;DHT22;1747;48.884;9.160;2023-11-18T13:37:35;9.10;99.90
3466;DHT22;1747;48.884;9.160;2023-11-18T13:40:02;9.00;99.90
3466;DHT22;1747;48.884;9.160;2023-11-18T13:42:33;9.00;99.90
3466;DHT22;1747;48.884;9.160;2023-11-18T13:45:08;8.90;99.90
3466;DHT22;1747;48.884;9.160;2023-11-18T13:47:37;8.90;99.90
3466;DHT22;1747;48.884;9.160;2023-11-18T13:50:07;9.00;99.90
3466;DHT22;1747;48.884;9.160;2023-11-18T13:52:34;8.90;99.90
3466;DHT22;1747;48.884;9.160;2023-11-18T13:55:01;8.80;99.90
3466;DHT22;1747;48.884;9.160;2023-11-18T13:57:31;8.80;99.90
3466;DHT22;1747;48.884;9.160;2023-11-18T13:59:58;8.80;99.90
3466;DHT22;1747;48.884;9.160;2023-11-18T14:02:27;8.90;99.90
3466;DHT22;1747;48.884;9.160;2023-11-18T14:04:55;8.90;99.90
3466;DHT22;1747;48.884;9.160;2023-11-18T14:07:23;9.00;99.90
3466;DHT22;1747;48.884;9.160;2023-11-18T14:09:50;8.90;99.90
3466;DHT22;1747;48.884;9.160;2023-11-18T14:12:22;8.90;99.90
3466;DHT22;1747;48.884;9.160;2023-11-18T14:14:51;9.00;99.90
3466;DHT22;1747;48.884;9.160;2023-11-18T14:17:18;9.00;99.90
3466;DHT22;1747;48.884;9.160;2023-11-18T14:19:46;8.90;99.90
3466;DHT22;1747;48.884;9.160;2023-11-18T14:22:13;9.00;99.90
3466;DHT22;1747;48.884;9.160;2023-11-18T14:24:40;9.10;99.90
3466;DHT22;1747;48.884;9.160;2023-11-18T14:27:07;9.00;99.90
3466;DHT22;1747;48.884;9.160;2023-11-18T14:29:35;8.90;99.90
3466;DHT22;1747;48.884;9.160;2023-11-18T14:32:03;8.80;99.90
3466;DHT22;1747;48.884;9.160;2023-11-18T14:34:32;8.70;99.90
3466;DHT22;1747;48.884;9.160;2023-11-18T14:37:00;8.70;99.90
3466;DHT22;1747;48.884;9.160;2023-11-18T14:39:28;8.70;99.90
3466;DHT22;1747;48.884;9.160;2023-11-18T14:41:55;8.70;99.90
3466;DHT22;1747;48.884;9.160;2023-11-18T14:44:22;8.70;99.90
3466;DHT22;1747;48.884;9.160;2023-11-18T14:46:49;8.60;99.90
3466;DHT22;1747;48.884;9.160;2023-11-18T14:49:17;8.50;99.90
3466;DHT22;1747;48.884;9.160;2023-11-18T14:51:44;8.50;99.90
3466;DHT22;1747;48.884;9.160;2023-11-18T14:54:12;8.50;99.90
3466;DHT22;1747;48.884;9.160;2023-11-18T14:56:39;8.60;99.90
3466;DHT22;1747;48.884;9.160;2023-11-18T14:59:06;8.50;99.90
3466;DHT22;1747;48.884;9.160;2023-11-18T15:01:33;8.50;99.90
3466;DHT22;1747;48.884;9.160;2023-11-18T15:04:00;8.60;99.90
3466;DHT22;1747;48.884;9.160;2023-11-18T15:06:31;8.60;99.90
3466;DHT22;1747;48.884;9.160;2023-11-18T15:08:57;8.60;99.90
3466;DHT22;1747;48.884;9.160;2023-11-18T15:11:26;8.60;99.90
3466;DHT22;1747;48.884;9.160;2023-11-18T15:13:53;8.70;99.90
3466;DHT22;1747;48.884;9.160;2023-11-18T15:16:21;8.70;99.90
3466;DHT22;1747;48.884;9.160;2023-11-18T15:18:48;8.60;99.90
3466;DHT22;1747;48.884;9.160;2023-11-18T15:21:18;8.80;99.90
3466;DHT22;1747;48.884;9.160;2023-11-18T15:23:44;8.80;99.90
3466;DHT22;1747;48.884;9.160;2023-11-18T15:26:13;8.70;99.90
3466;DHT22;1747;48.884;9.160;2023-11-18T15:28:42;8.70;99.90
3466;DHT22;1747;48.884;9.160;2023-11-18T15:31:08;8.70;99.90
3466;DHT22;1747;48.884;9.160;2023-11-18T15:33:35;8.80;99.90
3466;DHT22;1747;48.884;9.160;2023-11-18T15:36:03;9.00;99.90
3466;DHT22;1747;48.884;9.160;2023-11-18T15:38:30;9.10;99.90
3466;DHT22;1747;48.884;9.160;2023-11-18T15:40:59;9.30;99.90
3466;DHT22;1747;48.884;9.160;2023-11-18T15:43:26;9.40;99.90
3466;DHT22;1747;48.884;9.160;2023-11-18T15:45:55;9.50;99.90
3466;DHT22;1747;48.884;9.160;2023-11-18T15:48:23;9.50;99.90
3466;DHT22;1747;48.884;9.160;2023-11-18T15:50:51;9.50;99.90
3466;DHT22;1747;48.884;9.160;2023-11-18T15:53:18;9.50;99.90
3466;DHT22;1747;48.884;9.160;2023-11-18T15:55:45;9.50;99.90
3466;DHT22;1747;48.884;9.160;2023-11-18T15:58:13;9.30;99.90
3466;DHT22;1747;48.884;9.160;2023-11-18T16:00:40;9.30;99.90
3466;DHT22;1747;48.884;9.160;2023-11-18T16:03:08;9.30;99.90
3466;DHT22;1747;48.884;9.160;2023-11-18T16:05:35;9.30;99.90
3466;DHT22;1747;48.884;9.160;2023-11-18T16:08:02;9.30;99.90
3466;DHT22;1747;48.884;9.160;2023-11-18T16:10:29;9.20;99.90
3466;DHT22;1747;48.884;9.160;2023-11-18T16:12:57;8.90;99.90
3466;DHT22;1747;48.884;9.160;2023-11-18T16:15:25;8.80;99.90
3466;DHT22;1747;48.884;9.160;2023-11-18T16:17:53;8.70;99.90
3466;DHT22;1747;48.884;9.160;2023-11-18T16:20:23;8.60;99.90
3466;DHT22;1747;48.884;9.160;2023-11-18T16:22:51;8.60;99.90
3466;DHT22;1747;48.884;9.160;2023-11-18T16:25:20;8.60;99.90
3466;DHT22;1747;48.884;9.160;2023-11-18T16:27:50;8.60;99.90
3466;DHT22;1747;48.884;9.160;2023-11-18T16:30:18;8.60;99.90
3466;DHT22;1747;48.884;9.160;2023-11-18T16:32:50;8.60;99.90
3466;DHT22;1747;48.884;9.160;2023-11-18T16:35:17;8.50;99.90
3466;DHT22;1747;48.884;9.160;2023-11-18T16:37:47;8.50;99.90
3466;DHT22;1747;48.884;9.160;2023-11-18T16:40:15;8.60;99.90
3466;DHT22;1747;48.884;9.160;2023-11-18T16:42:43;8.50;99.90
3466;DHT22;1747;48.884;9.160;2023-11-18T16:45:11;8.60;99.90
3466;DHT22;1747;48.884;9.160;2023-11-18T16:47:38;8.50;99.90
3466;DHT22;1747;48.884;9.160;2023-11-18T16:50:07;8.50;99.90
3466;DHT22;1747;48.884;9.160;2023-11-18T16:52:34;8.50;99.90
3466;DHT22;1747;48.884;9.160;2023-11-18T16:55:03;8.50;99.90
3466;DHT22;1747;48.884;9.160;2023-11-18T16:57:30;8.50;99.90
3466;DHT22;1747;48.884;9.160;2023-11-18T17:00:00;8.50;99.90
3466;DHT22;1747;48.884;9.160;2023-11-18T17:02:28;8.50;99.90
3466;DHT22;1747;48.884;9.160;2023-11-18T17:04:55;8.50;99.90
3466;DHT22;1747;48.884;9.160;2023-11-18T17:07:22;8.50;99.90
3466;DHT22;1747;48.884;9.160;2023-11-18T17:09:49;8.40;99.90
3466;DHT22;1747;48.884;9.160;2023-11-18T17:12:17;8.50;99.90
3466;DHT22;1747;48.884;9.160;2023-11-18T17:14:44;8.50;99.90
3466;DHT22;1747;48.884;9.160;2023-11-18T17:17:12;8.40;99.90
3466;DHT22;1747;48.884;9.160;2023-11-18T17:19:40;8.40;99.90
3466;DHT22;1747;48.884;9.160;2023-11-18T17:22:07;8.40;99.90
3466;DHT22;1747;48.884;9.160;2023-11-18T17:24:38;8.40;99.90
3466;DHT22;1747;48.884;9.160;2023-11-18T17:27:05;8.40;99.90
3466;DHT22;1747;48.884;9.160;2023-11-18T17:29:35;8.30;99.90
3466;DHT22;1747;48.884;9.160;2023-11-18T17:32:03;8.40;99.90
3466;DHT22;1747;48.884;9.160;2023-11-18T17:34:31;8.40;99.90
3466;DHT22;1747;48.884;9.160;2023-11-18T17:36:58;8.40;99.90
3466;DHT22;1747;48.884;9.160;2023-11-18T17:39:25;8.40;99.90
3466;DHT22;1747;48.884;9.160;2023-11-18T17:41:52;8.40;99.90
3466;DHT22;1747;48.884;9.160;2023-11-18T17:44:19;8.40;99.90
3466;DHT22;1747;48.884;9.160;2023-11-18T17:46:49;8.40;99.90
3466;DHT22;1747;48.884;9.160;2023-11-18T17:49:16;8.50;99.90
3466;DHT22;1747;48.884;9.160;2023-11-18T17:51:43;8.40;99.90
3466;DHT22;1747;48.884;9.160;2023-11-18T17:54:14;8.40;99.90
3466;DHT22;1747;48.884;9.160;2023-11-18T17:56:41;8.40;99.90
3466;DHT22;1747;48.884;9.160;2023-11-18T17:59:08;8.40;99.90
3466;DHT22;1747;48.884;9.160;2023-11-18T18:01:34;8.30;99.90
3466;DHT22;1747;48.884;9.160;2023-11-18T18:04:04;8.20;99.90
3466;DHT22;1747;48.884;9.160;2023-11-18T18:06:32;8.20;99.90
3466;DHT22;1747;48.884;9.160;2023-11-18T18:08:59;8.10;99.90
3466;DHT22;1747;48.884;9.160;2023-11-18T18:11:25;8.00;99.90
3466;DHT22;1747;48.884;9.160;2023-11-18T18:13:52;8.00;99.90
3466;DHT22;1747;48.884;9.160;2023-11-18T18:16:20;8.00;99.90
3466;DHT22;1747;48.884;9.160;2023-11-18T18:18:46;7.90;99.90
3466;DHT22;1747;48.884;9.160;2023-11-18T18:21:15;7.90;99.90
3466;DHT22;1747;48.884;9.160;2023-11-18T18:23:42;8.10;99.90
3466;DHT22;1747;48.884;9.160;2023-11-18T18:26:09;8.10;99.90
3466;DHT22;1747;48.884;9.160;2023-11-18T18:28:36;8.10;99.90
3466;DHT22;1747;48.884;9.160;2023-11-18T18:31:03;8.10;99.90
3466;DHT22;1747;48.884;9.160;2023-11-18T18:33:30;8.00;99.90
3466;DHT22;1747;48.884;9.160;2023-11-18T18:35:57;8.00;99.90
3466;DHT22;1747;48.884;9.160;2023-11-18T18:38:25;7.90;99.90
3466;DHT22;1747;48.884;9.160;2023-11-18T18:40:52;7.90;99.90
3466;DHT22;1747;48.884;9.160;2023-11-18T18:43:21;8.00;99.90
3466;DHT22;1747;48.884;9.160;2023-11-18T18:45:47;8.00;99.90
3466;DHT22;1747;48.884;9.160;2023-11-18T18:48:14;8.00;99.90
3466;DHT22;1747;48.884;9.160;2023-11-18T18:50:41;8.00;99.90
3466;DHT22;1747;48.884;9.160;2023-11-18T18:53:08;8.00;99.90
3466;DHT22;1747;48.884;9.160;2023-11-18T18:55:36;8.00;99.90
3466;DHT22;1747;48.884;9.160;2023-11-18T18:58:03;8.10;99.90
3466;DHT22;1747;48.884;9.160;2023-11-18T19:00:30;8.00;99.90
3466;DHT22;1747;48.884;9.160;2023-11-18T19:02:57;7.90;99.90
3466;DHT22;1747;48.884;9.160;2023-11-18T19:05:24;7.80;99.90
3466;DHT22;1747;48.884;9.160;2023-11-18T19:07:52;7.80;99.90
3466;DHT22;1747;48.884;9.160;2023-11-18T19:10:21;7.90;99.90
3466;DHT22;1747;48.884;9.160;2023-11-18T19:12:49;7.90;99.90
3466;DHT22;1747;48.884;9.160;2023-11-18T19:15:16;7.80;99.90
3466;DHT22;1747;48.884;9.160;2023-11-18T19:17:44;7.80;99.90
3466;DHT22;1747;48.884;9.160;2023-11-18T19:20:11;7.90;99.90
3466;DHT22;1747;48.884;9.160;2023-11-18T19:22:40;7.90;99.90
3466;DHT22;1747;48.884;9.160;2023-11-18T19:25:08;7.90;99.90
3466;DHT22;1747;48.884;9.160;2023-11-18T19:27:35;7.80;99.90
3466;DHT22;1747;48.884;9.160;2023-11-18T19:30:05;7.80;99.90
3466;DHT22;1747;48.884;9.160;2023-11-18T19:32:42;7.80;99.90
3466;DHT22;1747;48.884;9.160;2023-11-18T19:35:14;7.80;99.90
3466;DHT22;1747;48.884;9.160;2023-11-18T19:37:41;7.90;99.90
3466;DHT22;1747;48.884;9.160;2023-11-18T19:40:09;8.00;99.90
3466;DHT22;1747;48.884;9.160;2023-11-18T19:42:37;8.00;99.90
3466;DHT22;1747;48.884;9.160;2023-11-18T19:45:07;8.10;99.90
3466;DHT22;1747;48.884;9.160;2023-11-18T19:47:34;8.10;99.90
3466;DHT22;1747;48.884;9.160;2023-11-18T19:50:02;8.10;99.90
3466;DHT22;1747;48.884;9.160;2023-11-18T19:52:31;8.00;99.90
3466;DHT22;1747;48.884;9.160;2023-11-18T19:54:58;8.00;99.90
3466;DHT22;1747;48.884;9.160;2023-11-18T19:57:25;7.90;99.90
3466;DHT22;1747;48.884;9.160;2023-11-18T19:59:52;7.90;99.90
3466;DHT22;1747;48.884;9.160;2023-11-18T20:02:21;7.90;99.90
3466;DHT22;1747;48.884;9.160;2023-11-18T20:04:48;7.90;99.90
3466;DHT22;1747;48.884;9.160;2023-11-18T20:07:15;7.90;99.90
3466;DHT22;1747;48.884;9.160;2023-11-18T20:09:45;8.00;99.90
3466;DHT22;1747;48.884;9.160;2023-11-18T20:12:14;8.00;99.90
3466;DHT22;1747;48.884;9.160;2023-11-18T20:14:44;7.90;99.90
3466;DHT22;1747;48.884;9.160;2023-11-18T20:17:33;8.10;99.90
3466;DHT22;1747;48.884;9.160;2023-11-18T20:20:16;8.20;99.90
3466;DHT22;1747;48.884;9.160;2023-11-18T20:22:43;8.30;99.90
3466;DHT22;1747;48.884;9.160;2023-11-18T20:25:10;8.40;99.90
3466;DHT22;1747;48.884;9.160;2023-11-18T20:27:40;8.50;99.90
3466;DHT22;1747;48.884;9.160;2023-11-18T20:30:08;8.50;99.90
3466;DHT22;1747;48.884;9.160;2023-11-18T20:32:37;8.50;99.90
3466;DHT22;1747;48.884;9.160;2023-11-18T20:35:05;8.50;99.90
3466;DHT22;1747;48.884;9.160;2023-11-18T20:37:32;8.60;99.90
3466;DHT22;1747;48.884;9.160;2023-11-18T20:40:00;8.70;99.90
3466;DHT22;1747;48.884;9.160;2023-11-18T20:42:28;8.70;99.90
3466;DHT22;1747;48.884;9.160;2023-11-18T20:44:54;8.70;99.90
3466;DHT22;1747;48.884;9.160;2023-11-18T20:47:21;8.80;99.90
3466;DHT22;1747;48.884;9.160;2023-11-18T20:49:50;8.90;99.90
3466;DHT22;1747;48.884;9.160;2023-11-18T20:52:17;8.90;99.90
3466;DHT22;1747;48.884;9.160;2023-11-18T20:54:43;9.00;99.90
3466;DHT22;1747;48.884;9.160;2023-11-18T20:57:11;9.00;99.90
3466;DHT22;1747;48.884;9.160;2023-11-18T20:59:38;8.90;99.90
3466;DHT22;1747;48.884;9.160;2023-11-18T21:02:05;8.80;99.90
3466;DHT22;1747;48.884;9.160;2023-11-18T21:04:33;8.80;99.90
3466;DHT22;1747;48.884;9.160;2023-11-18T21:07:01;8.70;99.90
3466;DHT22;1747;48.884;9.160;2023-11-18T21:09:31;8.70;99.90
3466;DHT22;1747;48.884;9.160;2023-11-18T21:11:59;8.70;99.90
3466;DHT22;1747;48.884;9.160;2023-11-18T21:14:25;8.80;99.90
3466;DHT22;1747;48.884;9.160;2023-11-18T21:16:52;8.80;99.90
3466;DHT22;1747;48.884;9.160;2023-11-18T21:19:19;8.80;99.90
3466;DHT22;1747;48.884;9.160;2023-11-18T21:21:48;8.80;99.90
3466;DHT22;1747;48.884;9.160;2023-11-18T21:24:16;8.80;99.90
3466;DHT22;1747;48.884;9.160;2023-11-18T21:26:43;8.80;99.90
3466;DHT22;1747;48.884;9.160;2023-11-18T21:29:11;8.80;99.90
3466;DHT22;1747;48.884;9.160;2023-11-18T21:31:37;8.80;99.90
3466;DHT22;1747;48.884;9.160;2023-11-18T21:34:04;8.90;99.90
3466;DHT22;1747;48.884;9.160;2023-11-18T21:36:31;8.80;99.90
3466;DHT22;1747;48.884;9.160;2023-11-18T21:39:00;8.70;99.90
3466;DHT22;1747;48.884;9.160;2023-11-18T21:41:28;8.70;99.90
3466;DHT22;1747;48.884;9.160;2023-11-18T21:43:55;8.70;99.90
3466;DHT22;1747;48.884;9.160;2023-11-18T21:46:25;8.70;99.90
3466;DHT22;1747;48.884;9.160;2023-11-18T21:48:52;8.70;99.90
3466;DHT22;1747;48.884;9.160;2023-11-18T21:51:19;8.80;99.90
3466;DHT22;1747;48.884;9.160;2023-11-18T21:53:46;8.80;99.90
3466;DHT22;1747;48.884;9.160;2023-11-18T21:56:13;8.80;99.90
3466;DHT22;1747;48.884;9.160;2023-11-18T21:58:43;8.80;99.90
3466;DHT22;1747;48.884;9.160;2023-11-18T22:01:10;8.90;99.90
3466;DHT22;1747;48.884;9.160;2023-11-18T22:03:37;8.90;99.90
3466;DHT22;1747;48.884;9.160;2023-11-18T22:06:04;8.90;99.90
3466;DHT22;1747;48.884;9.160;2023-11-18T22:08:31;8.90;99.90
3466;DHT22;1747;48.884;9.160;2023-11-18T22:10:59;8.90;99.90
3466;DHT22;1747;48.884;9.160;2023-11-18T22:13:26;8.90;99.90
3466;DHT22;1747;48.884;9.160;2023-11-18T22:15:54;8.90;99.90
3466;DHT22;1747;48.884;9.160;2023-11-18T22:18:21;9.00;99.90
3466;DHT22;1747;48.884;9.160;2023-11-18T22:20:48;9.00;99.90
3466;DHT22;1747;48.884;9.160;2023-11-18T22:23:15;9.00;99.90
3466;DHT22;1747;48.884;9.160;2023-11-18T22:25:42;9.00;99.90
3466;DHT22;1747;48.884;9.160;2023-11-18T22:28:13;9.00;99.90
3466;DHT22;1747;48.884;9.160;2023-11-18T22:30:40;9.00;99.90
3466;DHT22;1747;48.884;9.160;2023-11-18T22:33:09;9.10;99.90
3466;DHT22;1747;48.884;9.160;2023-11-18T22:35:35;9.10;99.90
3466;DHT22;1747;48.884;9.160;2023-11-18T22:38:03;9.10;99.90
3466;DHT22;1747;48.884;9.160;2023-11-18T22:40:30;9.10;99.90
3466;DHT22;1747;48.884;9.160;2023-11-18T22:42:56;9.00;99.90
3466;DHT22;1747;48.884;9.160;2023-11-18T22:45:24;8.90;99.90
3466;DHT22;1747;48.884;9.160;2023-11-18T22:47:52;8.90;99.90
3466;DHT22;1747;48.884;9.160;2023-11-18T22:50:20;8.80;99.90
3466;DHT22;1747;48.884;9.160;2023-11-18T22:52:48;8.80;99.90
3466;DHT22;1747;48.884;9.160;2023-11-18T22:55:16;8.80;99.90
3466;DHT22;1747;48.884;9.160;2023-11-18T22:57:44;8.80;99.90
3466;DHT22;1747;48.884;9.160;2023-11-18T23:00:13;8.80;99.90
3466;DHT22;1747;48.884;9.160;2023-11-18T23:02:55;8.80;99.90
3466;DHT22;1747;48.884;9.160;2023-11-18T23:05:23;8.90;99.90
3466;DHT22;1747;48.884;9.160;2023-11-18T23:07:51;8.90;99.90
3466;DHT22;1747;48.884;9.160;2023-11-18T23:10:18;8.80;99.90
3466;DHT22;1747;48.884;9.160;2023-11-18T23:12:45;8.90;99.90
3466;DHT22;1747;48.884;9.160;2023-11-18T23:15:12;8.80;99.90
3466;DHT22;1747;48.884;9.160;2023-11-18T23:17:41;8.80;99.90
3466;DHT22;1747;48.884;9.160;2023-11-18T23:20:08;8.90;99.90
3466;DHT22;1747;48.884;9.160;2023-11-18T23:22:38;8.80;99.90